createdAt,value
2022-11-15T00:01:35.175Z,17.77
2022-11-15T00:04:01.929Z,20.57
2022-11-15T00:06:28.665Z,20.57
2022-11-15T00:08:55.375Z,17.90
2022-11-15T00:11:22.081Z,24.30
2022-11-15T00:13:48.853Z,19.73
2022-11-15T00:16:15.818Z,22.47
2022-11-15T00:18:49.309Z,16.57
2022-11-15T00:21:18.273Z,21.83
2022-11-15T00:23:44.986Z,17.60
2022-11-15T00:26:13.367Z,20.50
2022-11-15T00:28:40.297Z,18.40
2022-11-15T00:31:09.789Z,16.80
2022-11-15T00:33:36.524Z,20.93
2022-11-15T00:36:06.178Z,15.80
2022-11-15T00:38:33.525Z,16.60
2022-11-15T00:41:03.865Z,16.23
2022-11-15T00:43:34.807Z,18.73
2022-11-15T00:46:01.859Z,18.67
2022-11-15T00:48:28.609Z,20.90
2022-11-15T00:50:55.335Z,19.93
2022-11-15T00:53:23.415Z,20.07
2022-11-15T00:55:50.193Z,21.30
2022-11-15T00:58:16.983Z,20.23
2022-11-15T01:00:43.749Z,18.20
2022-11-15T01:03:10.530Z,25.37
2022-11-15T01:05:38.293Z,16.50
2022-11-15T01:08:05.395Z,19.20
2022-11-15T01:10:33.457Z,17.20
2022-11-15T01:13:00.198Z,21.50
2022-11-15T01:15:27.020Z,18.70
2022-11-15T01:17:53.750Z,17.60
2022-11-15T01:20:20.489Z,16.97
2022-11-15T01:22:47.235Z,17.40
2022-11-15T01:25:14.034Z,17.80
2022-11-15T01:27:42.874Z,20.70
2022-11-15T01:30:10.365Z,16.60
2022-11-15T01:32:37.086Z,17.33
2022-11-15T01:35:04.314Z,19.03
2022-11-15T01:37:31.052Z,18.73
2022-11-15T01:39:57.818Z,18.97
2022-11-15T01:42:24.507Z,21.63
2022-11-15T01:44:53.041Z,21.13
2022-11-15T01:47:23.115Z,19.13
2022-11-15T01:49:55.567Z,22.13
2022-11-15T01:52:24.716Z,21.60
2022-11-15T01:54:56.645Z,18.80
2022-11-15T01:57:23.607Z,17.60
2022-11-15T01:59:51.766Z,19.43
2022-11-15T02:02:18.553Z,19.13
2022-11-15T02:04:47.322Z,18.03
2022-11-15T02:07:17.374Z,20.47
2022-11-15T02:09:45.070Z,22.33
2022-11-15T02:12:15.034Z,17.20
2022-11-15T02:14:43.815Z,17.73
2022-11-15T02:17:31.384Z,19.57
2022-11-15T02:20:21.169Z,17.73
2022-11-15T02:23:05.176Z,17.70
2022-11-15T02:25:40.245Z,16.00
2022-11-15T02:28:37.818Z,18.43
2022-11-15T02:31:13.022Z,17.40
2022-11-15T02:33:48.411Z,15.70
2022-11-15T02:36:20.945Z,20.40
2022-11-15T02:38:55.394Z,19.23
2022-11-15T02:41:29.289Z,18.07
2022-11-15T02:44:01.697Z,17.77
2022-11-15T02:46:35.820Z,19.70
2022-11-15T02:49:02.598Z,16.50
2022-11-15T02:51:29.347Z,19.30
2022-11-15T02:53:56.070Z,16.47
2022-11-15T02:56:22.844Z,21.33
2022-11-15T02:59:13.522Z,20.20
2022-11-15T03:01:53.036Z,18.57
2022-11-15T03:04:29.274Z,19.30
2022-11-15T03:07:03.526Z,15.07
2022-11-15T03:09:35.869Z,19.57
2022-11-15T03:12:12.672Z,13.43
2022-11-15T03:14:48.157Z,17.27
2022-11-15T03:17:23.574Z,19.93
2022-11-15T03:19:53.970Z,18.43
2022-11-15T03:22:24.108Z,18.20
2022-11-15T03:24:55.090Z,17.80
2022-11-15T03:27:27.007Z,15.63
2022-11-15T03:29:57.093Z,17.43
2022-11-15T03:32:28.873Z,15.10
2022-11-15T03:34:59.825Z,22.20
2022-11-15T03:37:33.576Z,18.57
2022-11-15T03:40:00.710Z,20.73
2022-11-15T03:42:32.379Z,18.73
2022-11-15T03:45:04.680Z,17.77
2022-11-15T03:47:37.293Z,18.13
2022-11-15T03:50:09.165Z,16.13
2022-11-15T03:52:36.096Z,23.00
2022-11-15T03:55:05.388Z,13.47
2022-11-15T03:57:32.163Z,15.73
2022-11-15T03:59:58.956Z,16.90
2022-11-15T04:02:25.749Z,18.07
2022-11-15T04:04:53.847Z,18.30
2022-11-15T04:07:20.597Z,16.30
2022-11-15T04:09:47.579Z,18.27
2022-11-15T04:12:14.295Z,18.53
2022-11-15T04:14:41.061Z,20.00
2022-11-15T04:17:07.877Z,16.00
2022-11-15T04:19:34.653Z,17.80
2022-11-15T04:22:02.684Z,14.53
2022-11-15T04:24:29.594Z,17.07
2022-11-15T04:26:56.298Z,16.20
2022-11-15T04:29:23.053Z,18.07
2022-11-15T04:31:49.787Z,15.67
2022-11-15T04:34:16.538Z,18.00
2022-11-15T04:36:43.267Z,16.73
2022-11-15T04:39:11.321Z,20.53
2022-11-15T04:41:38.050Z,18.10
2022-11-15T04:44:04.918Z,18.80
2022-11-15T04:46:31.698Z,14.00
2022-11-15T04:48:59.399Z,12.90
2022-11-15T04:51:26.604Z,18.47
2022-11-15T04:53:53.502Z,17.13
2022-11-15T04:56:21.577Z,20.00
2022-11-15T04:58:49.767Z,21.43
2022-11-15T05:01:17.250Z,19.50
2022-11-15T05:03:44.662Z,16.17
2022-11-15T05:06:11.409Z,17.07
2022-11-15T05:08:38.293Z,19.90
2022-11-15T05:11:05.071Z,18.23
2022-11-15T05:13:33.469Z,19.63
2022-11-15T05:16:00.326Z,16.87
2022-11-15T05:18:27.635Z,20.80
2022-11-15T05:20:54.331Z,17.03
2022-11-15T05:23:21.071Z,16.33
2022-11-15T05:25:47.989Z,16.07
2022-11-15T05:28:14.739Z,16.67
2022-11-15T05:30:42.870Z,17.50
2022-11-15T05:33:09.645Z,18.07
2022-11-15T05:35:40.520Z,19.50
2022-11-15T05:38:07.479Z,17.17
2022-11-15T05:40:35.335Z,17.60
2022-11-15T05:43:03.852Z,15.00
2022-11-15T05:45:31.032Z,19.20
2022-11-15T05:48:01.920Z,13.50
2022-11-15T05:50:28.877Z,13.60
2022-11-15T05:52:59.659Z,17.60
2022-11-15T05:55:29.184Z,17.13
2022-11-15T05:57:56.353Z,19.90
2022-11-15T06:00:23.224Z,20.83
2022-11-15T06:02:49.963Z,13.23
2022-11-15T06:05:18.121Z,15.10
2022-11-15T06:07:44.818Z,14.70
2022-11-15T06:10:11.809Z,13.83
2022-11-15T06:12:38.589Z,16.97
2022-11-15T06:15:06.068Z,19.17
2022-11-15T06:17:32.900Z,14.63
2022-11-15T06:19:59.670Z,15.73
2022-11-15T06:22:27.755Z,15.83
2022-11-15T06:24:54.457Z,15.33
2022-11-15T06:27:21.187Z,15.27
2022-11-15T06:29:47.928Z,15.77
2022-11-15T06:32:14.668Z,17.47
2022-11-15T06:34:41.441Z,15.70
2022-11-15T06:37:08.178Z,14.63
2022-11-15T06:39:36.265Z,15.00
2022-11-15T06:42:02.984Z,14.17
2022-11-15T06:44:29.694Z,17.43
2022-11-15T06:46:56.427Z,16.80
2022-11-15T06:49:23.171Z,14.10
2022-11-15T06:51:49.869Z,16.57
2022-11-15T06:54:16.597Z,17.07
2022-11-15T06:56:44.657Z,14.80
2022-11-15T06:59:11.409Z,12.40
2022-11-15T07:01:38.298Z,21.50
2022-11-15T07:04:05.355Z,12.10
2022-11-15T07:06:32.218Z,17.80
2022-11-15T07:08:58.982Z,15.03
2022-11-15T07:11:25.718Z,16.37
2022-11-15T07:13:53.825Z,15.77
2022-11-15T07:16:20.816Z,15.93
2022-11-15T07:18:47.548Z,17.70
2022-11-15T07:21:14.260Z,16.97
2022-11-15T07:23:41.193Z,19.53
2022-11-15T07:26:08.965Z,13.90
2022-11-15T07:28:36.246Z,15.43
2022-11-15T07:31:05.835Z,19.40
2022-11-15T07:33:32.968Z,18.17
2022-11-15T07:36:00.632Z,16.67
2022-11-15T07:38:27.361Z,23.87
2022-11-15T07:40:57.934Z,16.90
2022-11-15T07:43:24.671Z,19.90
2022-11-15T07:45:56.023Z,17.17
2022-11-15T07:48:32.149Z,17.63
2022-11-15T07:51:12.796Z,16.53
2022-11-15T07:53:40.738Z,17.47
2022-11-15T07:56:07.892Z,19.87
2022-11-15T07:58:34.847Z,19.83
2022-11-15T08:01:04.194Z,16.97
2022-11-15T08:03:34.974Z,20.23
2022-11-15T08:06:02.500Z,16.37
2022-11-15T08:08:29.448Z,14.73
2022-11-15T08:10:57.967Z,14.87
2022-11-15T08:13:24.667Z,16.10
2022-11-15T08:15:57.393Z,18.17
2022-11-15T08:18:25.448Z,17.00
2022-11-15T08:20:53.499Z,15.40
2022-11-15T08:23:20.230Z,17.93
2022-11-15T08:25:47.037Z,16.00
2022-11-15T08:28:13.776Z,14.83
2022-11-15T08:30:43.276Z,17.40
2022-11-15T08:33:12.371Z,17.27
2022-11-15T08:35:39.395Z,22.20
2022-11-15T08:38:07.465Z,21.40
2022-11-15T08:40:34.194Z,23.67
2022-11-15T08:43:00.930Z,13.57
2022-11-15T08:45:28.216Z,18.17
2022-11-15T08:47:54.983Z,19.63
2022-11-15T08:50:21.795Z,11.20
2022-11-15T08:52:48.520Z,15.27
2022-11-15T08:55:17.740Z,19.47
2022-11-15T08:57:44.764Z,15.53
2022-11-15T09:00:12.755Z,16.87
2022-11-15T09:02:40.367Z,11.07
2022-11-15T09:05:08.246Z,16.70
2022-11-15T09:07:35.050Z,18.67
2022-11-15T09:10:01.986Z,18.37
2022-11-15T09:12:30.212Z,21.43
2022-11-15T09:14:56.937Z,16.17
2022-11-15T09:17:25.212Z,13.83
2022-11-15T09:19:52.218Z,14.17
2022-11-15T09:22:19.139Z,16.90
2022-11-15T09:24:45.938Z,14.90
2022-11-15T09:27:12.764Z,14.83
2022-11-15T09:29:40.872Z,15.03
2022-11-15T09:32:07.598Z,18.77
2022-11-15T09:34:34.393Z,15.37
2022-11-15T09:37:01.161Z,12.17
2022-11-15T09:39:27.887Z,21.00
2022-11-15T09:42:18.564Z,18.67
2022-11-15T09:44:58.030Z,14.57
2022-11-15T09:47:45.958Z,12.70
2022-11-15T09:50:15.409Z,15.13
2022-11-15T09:52:45.313Z,16.17
2022-11-15T09:55:14.855Z,12.60
2022-11-15T09:57:51.145Z,12.53
2022-11-15T10:03:12.892Z,20.70
2022-11-15T10:05:41.702Z,11.27
2022-11-15T10:08:22.259Z,15.00
2022-11-15T10:11:09.699Z,13.10
2022-11-15T10:13:44.246Z,11.97
2022-11-15T10:16:38.453Z,12.80
2022-11-15T10:19:13.430Z,13.37
2022-11-15T10:21:50.594Z,10.60
2022-11-15T10:24:20.896Z,13.60
2022-11-15T10:26:48.864Z,8.57
2022-11-15T10:29:19.885Z,23.70
2022-11-15T10:31:48.783Z,12.10
2022-11-15T10:34:17.453Z,8.00
2022-11-15T10:36:50.293Z,13.37
2022-11-15T10:39:17.326Z,10.03
2022-11-15T10:41:44.147Z,10.10
2022-11-15T10:44:24.114Z,11.47
2022-11-15T10:47:27.011Z,14.13
2022-11-15T10:49:56.162Z,9.50
2022-11-15T10:52:23.016Z,13.83
2022-11-15T10:54:52.056Z,9.27
2022-11-15T10:57:20.987Z,11.43
2022-11-15T10:59:49.945Z,10.27
2022-11-15T11:02:32.861Z,9.07
2022-11-15T11:05:00.736Z,11.97
2022-11-15T11:07:29.379Z,10.30
2022-11-15T11:10:01.533Z,9.50
2022-11-15T11:12:30.467Z,6.77
2022-11-15T11:14:57.189Z,10.27
2022-11-15T11:17:46.013Z,10.90
2022-11-15T11:20:21.844Z,11.53
2022-11-15T11:23:01.698Z,9.30
2022-11-15T11:25:35.368Z,9.70
2022-11-15T11:28:34.529Z,14.73
2022-11-15T11:31:13.941Z,8.67
2022-11-15T11:33:50.482Z,13.43
2022-11-15T11:36:25.625Z,10.43
2022-11-15T11:38:59.637Z,11.57
2022-11-15T11:41:44.458Z,9.47
2022-11-15T11:44:25.106Z,10.33
2022-11-15T11:46:57.159Z,8.40
2022-11-15T11:49:31.920Z,14.33
2022-11-15T11:52:05.969Z,11.57
2022-11-15T11:54:39.021Z,10.50
2022-11-15T11:57:11.800Z,9.53
2022-11-15T11:59:44.058Z,9.03
2022-11-15T12:02:19.047Z,8.27
2022-11-15T12:04:51.921Z,9.30
2022-11-15T12:07:22.526Z,8.97
2022-11-15T12:09:55.235Z,10.33
2022-11-15T12:12:28.512Z,10.67
2022-11-15T12:14:58.129Z,8.63
2022-11-15T12:17:26.959Z,8.37
2022-11-15T12:19:58.451Z,6.83
2022-11-15T12:22:33.960Z,9.57
2022-11-15T12:25:04.154Z,10.70
2022-11-15T12:27:39.474Z,9.60
2022-11-15T12:30:13.641Z,8.17
2022-11-15T12:32:49.684Z,7.77
2022-11-15T12:35:27.410Z,8.63
2022-11-15T12:37:54.737Z,7.73
2022-11-15T12:40:29.607Z,8.20
2022-11-15T12:43:02.677Z,9.40
2022-11-15T12:45:32.013Z,10.50
2022-11-15T12:48:46.960Z,7.20
2022-11-15T12:51:15.091Z,5.00
2022-11-15T12:53:41.896Z,6.73
2022-11-15T12:56:25.003Z,6.47
2022-11-15T12:58:57.087Z,11.83
2022-11-15T13:01:58.536Z,7.57
2022-11-15T13:04:30.659Z,8.10
2022-11-15T13:07:01.384Z,9.93
2022-11-15T13:09:53.986Z,9.00
2022-11-15T13:12:50.688Z,8.67
2022-11-15T13:15:41.102Z,8.00
2022-11-15T13:18:35.092Z,9.90
2022-11-15T13:21:03.455Z,7.70
2022-11-15T13:23:32.029Z,15.63
2022-11-15T13:26:12.282Z,8.37
2022-11-15T13:28:43.459Z,14.30
2022-11-15T13:31:27.580Z,8.20
2022-11-15T13:33:57.890Z,9.27
2022-11-15T13:36:27.128Z,9.40
2022-11-15T13:39:00.816Z,9.50
2022-11-15T13:41:29.276Z,11.70
2022-11-15T13:43:57.634Z,8.80
2022-11-15T13:46:25.825Z,7.73
2022-11-15T13:48:55.087Z,11.03
2022-11-15T13:51:27.203Z,7.00
2022-11-15T13:53:59.804Z,7.00
2022-11-15T13:56:28.447Z,12.83
2022-11-15T13:58:55.363Z,9.93
2022-11-15T14:01:23.698Z,10.10
2022-11-15T14:03:57.236Z,7.50
2022-11-15T14:06:25.939Z,10.00
2022-11-15T14:09:15.988Z,7.30
2022-11-15T14:11:51.813Z,6.80
2022-11-15T14:14:22.442Z,7.30
2022-11-15T14:16:51.025Z,6.10
2022-11-15T14:19:36.924Z,7.53
2022-11-15T14:22:18.520Z,9.43
2022-11-15T14:24:48.311Z,13.00
2022-11-15T14:27:32.825Z,6.30
2022-11-15T14:29:59.584Z,7.40
2022-11-15T14:32:28.580Z,6.90
2022-11-15T14:34:56.955Z,7.70
2022-11-15T14:37:26.584Z,7.37
2022-11-15T14:39:55.140Z,8.50
2022-11-15T14:42:25.424Z,7.97
2022-11-15T14:44:52.636Z,9.00
2022-11-15T14:47:19.782Z,8.27
2022-11-15T14:49:46.797Z,8.13
2022-11-15T14:52:31.821Z,7.80
2022-11-15T14:55:01.782Z,10.03
2022-11-15T14:57:28.642Z,5.63
2022-11-15T14:59:55.377Z,8.90
2022-11-15T15:02:23.710Z,5.13
2022-11-15T15:04:50.957Z,6.57
2022-11-15T15:07:18.900Z,7.93
2022-11-15T15:09:46.451Z,5.90
2022-11-15T15:12:19.474Z,5.20
2022-11-15T15:14:47.431Z,8.10
2022-11-15T15:17:14.352Z,5.33
2022-11-15T15:19:41.555Z,9.30
2022-11-15T15:22:13.757Z,5.10
2022-11-15T15:24:40.750Z,4.50
2022-11-15T15:27:07.470Z,6.13
2022-11-15T15:29:35.603Z,6.80
2022-11-15T15:32:02.366Z,7.70
2022-11-15T15:34:29.077Z,6.43
2022-11-15T15:37:08.894Z,4.40
2022-11-15T15:39:35.769Z,5.13
2022-11-15T15:42:02.574Z,6.63
2022-11-15T15:44:29.314Z,9.73
2022-11-15T15:46:57.486Z,6.57
2022-11-15T15:49:24.210Z,6.97
2022-11-15T15:51:50.937Z,6.50
2022-11-15T15:54:17.732Z,6.50
2022-11-15T15:56:44.479Z,7.40
2022-11-15T15:59:11.181Z,11.63
2022-11-15T16:01:37.977Z,7.70
2022-11-15T16:04:06.117Z,6.27
2022-11-15T16:06:38.628Z,9.20
2022-11-15T16:09:15.335Z,9.00
2022-11-15T16:11:44.148Z,10.53
2022-11-15T16:14:10.930Z,5.67
2022-11-15T16:16:37.992Z,11.13
2022-11-15T16:19:06.068Z,10.20
2022-11-15T16:21:32.768Z,9.33
2022-11-15T16:23:59.538Z,7.13
2022-11-15T16:26:28.024Z,8.60
2022-11-15T16:28:55.109Z,6.77
2022-11-15T16:31:21.958Z,7.20
2022-11-15T16:33:48.678Z,9.77
2022-11-15T16:36:23.406Z,7.30
2022-11-15T16:38:54.094Z,9.63
2022-11-15T16:41:20.845Z,12.93
2022-11-15T16:43:48.250Z,7.50
2022-11-15T16:46:18.570Z,8.43
2022-11-15T16:49:04.412Z,9.43
2022-11-15T16:51:35.416Z,10.60
2022-11-15T16:54:02.187Z,7.53
2022-11-15T16:56:41.537Z,8.60
2022-11-15T16:59:11.729Z,7.67
2022-11-15T17:01:38.879Z,10.67
2022-11-15T17:04:05.856Z,9.20
2022-11-15T17:06:32.582Z,8.20
2022-11-15T17:09:06.412Z,7.20
2022-11-15T17:11:33.371Z,8.47
2022-11-15T17:14:02.933Z,10.50
2022-11-15T17:16:30.295Z,10.63
2022-11-15T17:19:01.836Z,6.73
2022-11-15T17:21:45.680Z,5.70
2022-11-15T17:24:26.620Z,5.03
2022-11-15T17:26:53.349Z,6.40
2022-11-15T17:29:25.898Z,7.53
2022-11-15T17:31:52.672Z,9.67
2022-11-15T17:34:21.766Z,6.37
2022-11-15T17:36:49.237Z,8.20
2022-11-15T17:39:20.609Z,5.97
2022-11-15T17:41:47.624Z,6.70
2022-11-15T17:44:14.573Z,13.60
2022-11-15T17:46:41.357Z,11.13
2022-11-15T17:49:08.066Z,8.33
2022-11-15T17:51:34.775Z,8.40
2022-11-15T17:54:01.876Z,6.80
2022-11-15T17:56:29.978Z,8.47
2022-11-15T17:58:58.183Z,10.90
2022-11-15T18:01:27.561Z,19.57
2022-11-15T18:03:55.615Z,10.10
2022-11-15T18:06:23.923Z,11.80
2022-11-15T18:08:54.609Z,9.83
2022-11-15T18:11:23.365Z,8.83
2022-11-15T18:13:56.199Z,9.10
2022-11-15T18:16:24.652Z,13.90
2022-11-15T18:18:51.736Z,11.90
2022-11-15T18:21:20.143Z,10.87
2022-11-15T18:23:47.415Z,9.20
2022-11-15T18:26:16.432Z,18.43
2022-11-15T18:28:44.628Z,11.83
2022-11-15T18:31:17.557Z,12.87
2022-11-15T18:33:45.352Z,13.30
2022-11-15T18:36:13.751Z,12.70
2022-11-15T18:38:41.128Z,11.27
2022-11-15T18:41:10.297Z,14.20
2022-11-15T18:43:37.832Z,14.43
2022-11-15T18:46:06.548Z,15.90
2022-11-15T18:48:35.861Z,12.60
2022-11-15T18:51:05.253Z,9.63
2022-11-15T18:53:32.615Z,10.27
2022-11-15T18:56:03.408Z,12.27
2022-11-15T18:58:30.837Z,8.73
2022-11-15T19:01:01.484Z,10.00
2022-11-15T19:03:31.599Z,11.07
2022-11-15T19:06:03.491Z,11.33
2022-11-15T19:08:34.287Z,10.23
2022-11-15T19:11:06.674Z,15.33
2022-11-15T19:13:33.815Z,24.27
2022-11-15T19:16:01.983Z,25.60
2022-11-15T19:18:29.309Z,28.17
2022-11-15T19:20:56.394Z,21.97
2022-11-15T19:23:24.431Z,29.90
2022-11-15T19:25:54.753Z,16.93
2022-11-15T19:28:21.541Z,25.07
2022-11-15T19:30:48.327Z,19.93
2022-11-15T19:33:15.037Z,22.70
2022-11-15T19:35:41.957Z,19.57
2022-11-15T19:38:08.718Z,22.17
2022-11-15T19:40:37.014Z,25.23
2022-11-15T19:43:04.253Z,18.97
2022-11-15T19:45:30.971Z,24.40
2022-11-15T19:47:58.249Z,14.87
2022-11-15T19:50:25.317Z,13.17
2022-11-15T19:52:52.013Z,19.37
2022-11-15T19:55:18.745Z,15.20
2022-11-15T19:57:46.777Z,18.43
2022-11-15T20:00:13.892Z,14.63
2022-11-15T20:02:40.690Z,11.63
2022-11-15T20:05:08.121Z,14.80
2022-11-15T20:07:34.886Z,21.73
2022-11-15T20:10:01.628Z,18.90
2022-11-15T20:12:28.443Z,20.20
2022-11-15T20:14:56.493Z,18.47
2022-11-15T20:17:23.233Z,22.63
2022-11-15T20:19:49.991Z,21.20
2022-11-15T20:22:16.756Z,16.10
2022-11-15T20:24:43.537Z,21.00
2022-11-15T20:27:10.255Z,20.73
2022-11-15T20:29:37.614Z,19.57
2022-11-15T20:32:08.160Z,20.77
2022-11-15T20:34:34.871Z,15.20
2022-11-15T20:37:01.602Z,18.07
2022-11-15T20:39:28.374Z,18.27
2022-11-15T20:41:55.083Z,21.93
2022-11-15T20:44:21.812Z,21.80
2022-11-15T20:46:48.590Z,24.90
2022-11-15T20:49:16.689Z,21.67
2022-11-15T20:51:43.391Z,21.47
2022-11-15T20:54:10.752Z,16.13
2022-11-15T20:56:37.681Z,14.17
2022-11-15T20:59:04.469Z,10.13
2022-11-15T21:01:31.300Z,15.17
2022-11-15T21:03:58.142Z,13.17
2022-11-15T21:06:26.956Z,15.40
2022-11-15T21:08:54.959Z,16.10
2022-11-15T21:11:22.212Z,18.00
2022-11-15T21:13:48.897Z,16.13
2022-11-15T21:16:15.622Z,20.10
2022-11-15T21:18:42.866Z,21.30
2022-11-15T21:21:09.604Z,20.93
2022-11-15T21:23:37.702Z,24.30
2022-11-15T21:26:04.572Z,17.37
2022-11-15T21:28:31.489Z,21.00
2022-11-15T21:31:00.175Z,15.33
2022-11-15T21:33:27.707Z,21.60
2022-11-15T21:35:54.713Z,19.20
2022-11-15T21:38:21.838Z,19.63
2022-11-15T21:40:50.180Z,24.33
2022-11-15T21:43:17.103Z,21.90
2022-11-15T21:45:44.658Z,17.37
2022-11-15T21:48:11.589Z,12.20
2022-11-15T21:50:38.311Z,18.53
2022-11-15T21:53:05.028Z,21.17
2022-11-15T21:55:31.774Z,24.50
2022-11-15T21:57:59.804Z,24.73
2022-11-15T22:00:26.899Z,27.50
2022-11-15T22:02:53.668Z,23.53
2022-11-15T22:05:20.434Z,22.70
2022-11-15T22:07:47.164Z,23.80
2022-11-15T22:10:14.133Z,20.93
2022-11-15T22:12:40.930Z,21.87
2022-11-15T22:15:09.717Z,16.47
2022-11-15T22:17:36.447Z,18.13
2022-11-15T22:20:17.014Z,15.80
2022-11-15T22:22:50.309Z,20.73
2022-11-15T22:25:17.271Z,24.27
2022-11-15T22:27:44.054Z,23.00
2022-11-15T22:30:13.200Z,22.20
2022-11-15T22:43:28.912Z,18.93
2022-11-15T22:45:58.423Z,17.77
2022-11-15T22:48:28.032Z,20.20
2022-11-15T22:50:55.311Z,24.87
2022-11-15T22:53:22.930Z,23.00
2022-11-15T22:55:50.733Z,24.20
2022-11-15T22:58:17.565Z,25.37
2022-11-15T23:00:44.293Z,25.00
2022-11-15T23:03:12.466Z,22.83
2022-11-15T23:05:39.264Z,21.70
2022-11-15T23:08:06.052Z,20.13
2022-11-15T23:10:32.856Z,15.87
2022-11-15T23:13:03.659Z,18.90
2022-11-15T23:15:33.372Z,20.40
2022-11-15T23:18:00.278Z,25.77
2022-11-15T23:20:42.399Z,21.20
2022-11-15T23:23:11.657Z,22.27
2022-11-15T23:25:38.565Z,16.33
2022-11-15T23:28:05.851Z,17.90
2022-11-15T23:30:34.576Z,17.70
2022-11-15T23:33:01.367Z,16.70
2022-11-15T23:35:29.511Z,23.03
2022-11-15T23:37:56.270Z,18.77
2022-11-15T23:40:23.026Z,18.63
2022-11-15T23:42:49.751Z,22.83
2022-11-15T23:45:16.737Z,17.40
2022-11-15T23:47:43.602Z,19.13
2022-11-15T23:50:10.555Z,16.53
2022-11-15T23:52:38.623Z,19.00
2022-11-15T23:55:06.390Z,16.67
2022-11-15T23:57:33.163Z,16.37
